Time;durP1;ratioP1;P1;durP2;ratioP2;P2;SDS_P1;SDS_P2;PMS_P1;PMS_P2;Temp;Humidity;BMP_temperature;BMP_pressure;BME280_temperature;BME280_humidity;BME280_pressure;Samples;Min_cycle;Max_cycle;Signal;HPM_P1;HPM_P2
2023/04/03 17:21:03;;;;;;;2.78;1.48;;;19.50;22.80;;;;;;21044827;27;20419;-59
2023/04/03 17:31:05;;;;;;;4.07;1.35;;;19.70;22.40;;;;;;20888807;28;20060;-58
2023/04/03 17:41:08;;;;;;;10.55;6.22;;;19.40;24.10;;;;;;20880126;28;20076;-59
2023/04/03 17:51:12;;;;;;;6.63;2.13;;;19.20;25.80;;;;;;20891545;28;20053;-54
2023/04/03 18:01:34;;;;;;;12.13;6.55;;;19.10;26.80;;;;;;20893462;28;20049;-55
2023/04/03 18:11:36;;;;;;;7.45;2.60;;;18.90;24.60;;;;;;20896686;28;20068;-56
2023/04/03 18:21:38;;;;;;;4.68;1.85;;;18.70;26.30;;;;;;20897586;28;20049;-55
2023/04/03 18:31:42;;;;;;;4.25;2.47;;;18.40;27.00;;;;;;20844678;28;20394;-56
2023/04/03 18:41:44;;;;;;;4.80;2.90;;;18.20;28.10;;;;;;20841498;28;20068;-55
2023/04/03 18:51:46;;;;;;;15.05;9.38;;;18.10;28.30;;;;;;20838761;28;20091;-56
2023/04/03 19:01:47;;;;;;;7.82;2.10;;;17.80;29.20;;;;;;20838808;28;20049;-56
2023/04/03 19:11:49;;;;;;;6.60;3.10;;;17.70;28.50;;;;;;20837315;28;20477;-56
2023/04/03 19:21:50;;;;;;;3.70;1.80;;;17.50;28.50;;;;;;20836897;28;20483;-56
2023/04/03 19:31:51;;;;;;;5.88;2.70;;;17.50;27.60;;;;;;20835999;28;20506;-58
2023/04/03 19:41:53;;;;;;;4.22;2.35;;;17.30;26.10;;;;;;20834199;28;20046;-57
2023/04/03 19:51:55;;;;;;;5.47;2.60;;;17.30;25.50;;;;;;20834457;28;20053;-57
2023/04/03 20:01:56;;;;;;;6.32;2.95;;;17.30;24.10;;;;;;20834432;28;20054;-58
2023/04/03 20:12:00;;;;;;;7.25;3.35;;;16.90;23.40;;;;;;20833186;28;20112;-56
2023/04/03 20:22:01;;;;;;;5.27;2.63;;;16.60;23.40;;;;;;20831331;28;20053;-56
2023/04/03 20:32:03;;;;;;;7.30;1.85;;;16.50;23.30;;;;;;20831710;28;20052;-58
2023/04/03 20:42:04;;;;;;;5.75;2.60;;;16.50;23.00;;;;;;20831207;28;20049;-57
2023/04/03 20:52:06;;;;;;;4.60;2.25;;;16.30;22.80;;;;;;20830224;28;20483;-58
2023/04/03 21:02:07;;;;;;;5.70;3.00;;;16.20;23.30;;;;;;20830001;28;20344;-57
2023/04/03 21:12:47;;;;;;;3.72;2.00;;;16.10;23.70;;;;;;20828969;28;20106;-58
2023/04/03 21:23:08;;;;;;;5.85;2.70;;;16.00;24.00;;;;;;20827276;28;20057;-59
2023/04/03 21:33:09;;;;;;;3.60;1.98;;;16.00;24.20;;;;;;20828092;28;20156;-57
2023/04/03 21:43:11;;;;;;;2.72;1.40;;;16.10;24.10;;;;;;20828059;28;20045;-57
2023/04/03 21:53:14;;;;;;;2.85;1.33;;;16.00;24.20;;;;;;20828641;28;20052;-57
2023/04/03 22:03:20;;;;;;;3.92;1.52;;;15.90;24.50;;;;;;20837472;28;20463;-57
2023/04/03 22:13:21;;;;;;;5.35;2.53;;;15.80;25.00;;;;;;20843190;28;20453;-58
2023/04/03 22:23:23;;;;;;;5.72;2.22;;;15.50;27.00;;;;;;20842129;28;20128;-56
2023/04/03 22:33:24;;;;;;;5.25;3.20;;;15.20;27.60;;;;;;20841182;28;20041;-56
2023/04/03 22:43:27;;;;;;;5.85;2.33;;;15.10;28.10;;;;;;20841921;28;20449;-55
2023/04/03 22:53:29;;;;;;;4.90;1.90;;;15.20;27.80;;;;;;20840855;28;20041;-57
2023/04/03 23:03:30;;;;;;;2.30;1.27;;;15.20;27.70;;;;;;20840192;28;20046;-55
2023/04/03 23:13:32;;;;;;;3.03;1.40;;;15.10;28.30;;;;;;20838476;28;20164;-56
2023/04/03 23:23:33;;;;;;;3.83;1.40;;;15.00;29.20;;;;;;20838815;28;20079;-56
2023/04/03 23:33:37;;;;;;;2.97;1.10;;;15.00;30.10;;;;;;20838101;28;20049;-57
2023/04/03 23:43:40;;;;;;;3.90;1.20;;;14.80;30.50;;;;;;20837515;28;20049;-58
2023/04/03 23:53:41;;;;;;;3.78;1.35;;;14.70;31.10;;;;;;20836612;28;20050;-56
